Time;durP1;ratioP1;P1;durP2;ratioP2;P2;SDS_P1;SDS_P2;PMS_P1;PMS_P2;Temp;Humidity;BMP_temperature;BMP_pressure;BME280_temperature;BME280_humidity;BME280_pressure;Samples;Min_cycle;Max_cycle;Signal;HPM_P1;HPM_P2
2023/05/31 00:01:35;;;;;;;2.80;1.60;;;;;;;13.63;53.21;101852.31;5060514;28;20074;-56
2023/05/31 00:04:02;;;;;;;10.15;1.92;;;;;;;13.57;53.78;101856.13;5052775;28;20056;-58
2023/05/31 00:06:30;;;;;;;4.88;1.67;;;;;;;13.56;54.06;101861.50;5053384;28;20064;-56
2023/05/31 00:08:57;;;;;;;3.85;1.83;;;;;;;13.53;53.92;101857.22;5058751;28;20156;-55
2023/05/31 00:11:26;;;;;;;7.55;2.50;;;;;;;13.51;54.29;101858.22;5060132;28;20565;-58
2023/05/31 00:13:53;;;;;;;3.95;1.80;;;;;;;13.47;53.91;101856.69;5059331;28;20140;-57
2023/05/31 00:16:21;;;;;;;6.97;1.92;;;;;;;13.43;54.25;101850.69;5065335;28;20136;-58
2023/05/31 00:19:08;;;;;;;5.57;2.08;;;;;;;13.38;54.78;101852.72;5062400;28;20164;-53
2023/05/31 00:21:35;;;;;;;10.85;2.03;;;;;;;13.28;55.23;101851.47;5068256;28;20068;-58
2023/05/31 00:24:03;;;;;;;6.55;2.17;;;;;;;13.20;55.43;101851.00;5064074;28;20129;-57
2023/05/31 00:26:30;;;;;;;11.27;2.50;;;;;;;13.13;55.84;101848.63;5066125;28;20048;-57
2023/05/31 00:28:57;;;;;;;5.10;2.40;;;;;;;13.09;55.55;101847.06;5061704;28;20071;-57
2023/05/31 00:31:24;;;;;;;6.22;1.90;;;;;;;13.06;56.11;101849.88;5063617;28;20131;-56
2023/05/31 00:33:51;;;;;;;5.32;1.70;;;;;;;13.02;56.23;101850.13;5059638;28;20143;-58
2023/05/31 00:36:19;;;;;;;5.82;1.92;;;;;;;12.99;55.99;101845.81;5053472;28;20068;-58
2023/05/31 00:38:47;;;;;;;10.40;2.75;;;;;;;12.93;56.61;101856.72;5065208;28;20057;-58
2023/05/31 00:41:15;;;;;;;5.72;1.88;;;;;;;12.86;56.50;101850.84;5065589;28;20048;-58
2023/05/31 00:43:42;;;;;;;4.30;1.88;;;;;;;12.81;56.57;101849.38;5061811;28;20056;-57
2023/05/31 00:46:19;;;;;;;5.07;1.95;;;;;;;12.73;56.99;101855.03;5041000;28;20063;-59
2023/05/31 00:48:46;;;;;;;8.55;1.90;;;;;;;12.69;56.59;101850.81;5045478;28;20064;-58
2023/05/31 00:51:13;;;;;;;5.28;1.70;;;;;;;12.68;57.25;101849.97;5038780;28;20147;-59
2023/05/31 00:53:41;;;;;;;3.05;1.73;;;;;;;12.67;57.16;101850.91;5065341;28;20068;-56
2023/05/31 00:56:08;;;;;;;6.40;1.92;;;;;;;12.62;57.22;101852.06;5039640;28;20044;-59
2023/05/31 00:58:36;;;;;;;5.57;1.60;;;;;;;12.57;57.05;101848.78;5054844;28;20095;-61
2023/05/31 01:01:03;;;;;;;4.97;2.03;;;;;;;12.55;57.35;101851.47;5057522;28;20361;-58
2023/05/31 01:03:30;;;;;;;9.40;1.70;;;;;;;12.54;57.35;101856.84;5056000;28;20127;-59
2023/05/31 01:05:58;;;;;;;6.18;2.40;;;;;;;12.52;57.49;101856.03;5044612;28;20144;-58
2023/05/31 01:08:25;;;;;;;4.93;1.92;;;;;;;12.49;58.17;101862.34;5063428;28;20048;-61
2023/05/31 01:10:54;;;;;;;7.55;2.38;;;;;;;12.45;57.73;101859.91;5058372;28;20617;-57
2023/05/31 01:13:35;;;;;;;6.88;2.15;;;;;;;12.44;57.62;101851.13;5040188;28;20122;-57
2023/05/31 01:16:35;;;;;;;5.25;2.42;;;;;;;12.44;57.93;101852.94;5056366;28;22190;-57
2023/05/31 01:19:07;;;;;;;3.67;1.80;;;;;;;12.42;58.14;101853.84;5036690;28;20044;-58
2023/05/31 01:22:01;;;;;;;5.53;2.10;;;;;;;12.38;58.19;101854.94;5059578;28;20053;-55
2023/05/31 01:24:51;;;;;;;3.70;1.88;;;;;;;12.31;57.93;101850.00;5058353;28;20117;-58
2023/05/31 01:27:19;;;;;;;8.70;2.42;;;;;;;12.28;58.38;101845.72;5038502;28;22223;-58
2023/05/31 01:29:47;;;;;;;8.43;1.90;;;;;;;12.27;58.51;101848.44;5032085;28;20076;-57
2023/05/31 01:32:14;;;;;;;7.15;2.72;;;;;;;12.27;58.99;101849.28;5044882;28;20045;-57
2023/05/31 01:34:45;;;;;;;6.68;1.80;;;;;;;12.23;58.70;101845.06;5064739;28;20044;-57
2023/05/31 01:37:13;;;;;;;3.60;2.10;;;;;;;12.24;58.62;101856.47;5045018;28;20078;-56
2023/05/31 01:39:40;;;;;;;4.15;2.00;;;;;;;12.24;58.79;101859.13;5065810;28;20648;-55
2023/05/31 01:42:09;;;;;;;6.03;2.10;;;;;;;12.18;58.81;101851.50;5060761;28;20052;-58
2023/05/31 01:44:37;;;;;;;4.78;1.90;;;;;;;12.13;59.17;101855.19;5068230;28;20461;-57
2023/05/31 01:47:06;;;;;;;4.32;1.85;;;;;;;12.08;59.59;101859.84;5058818;28;20442;-58
2023/05/31 01:49:35;;;;;;;7.95;1.83;;;;;;;12.07;59.58;101859.91;5042228;28;20132;-59
2023/05/31 01:52:05;;;;;;;5.78;1.95;;;;;;;12.06;59.27;101856.41;5055512;28;20103;-56
2023/05/31 01:54:33;;;;;;;6.22;1.90;;;;;;;12.05;59.61;101862.59;5062595;28;20137;-58
2023/05/31 01:57:03;;;;;;;7.20;2.25;;;;;;;12.03;59.45;101851.28;5047817;28;20058;-59
2023/05/31 01:59:30;;;;;;;6.93;2.50;;;;;;;12.01;59.83;101853.09;5062594;28;21011;-57
2023/05/31 02:01:58;;;;;;;6.07;1.92;;;;;;;11.97;59.56;101851.53;5043144;28;20059;-55
2023/05/31 02:04:25;;;;;;;7.63;2.13;;;;;;;11.95;59.44;101860.47;5040938;28;20102;-59
2023/05/31 02:06:52;;;;;;;5.45;2.00;;;;;;;11.93;59.98;101854.38;5073014;28;20182;-59
2023/05/31 02:09:21;;;;;;;5.20;1.70;;;;;;;11.90;60.03;101855.38;5063581;28;20053;-56
2023/05/31 02:11:48;;;;;;;4.43;1.60;;;;;;;11.88;59.99;101857.22;5069797;28;20152;-58
2023/05/31 02:14:15;;;;;;;6.30;2.35;;;;;;;11.85;60.18;101858.25;5068946;28;20415;-58
2023/05/31 02:16:42;;;;;;;9.00;2.65;;;;;;;11.83;60.04;101856.56;5063418;28;20054;-56
2023/05/31 02:22:51;;;;;;;6.93;2.78;;;;;;;11.74;60.18;101856.94;5062938;28;20055;-60
2023/05/31 02:25:18;;;;;;;4.85;2.05;;;;;;;11.70;60.53;101855.38;5066970;28;20067;-55
2023/05/31 02:27:45;;;;;;;7.70;2.10;;;;;;;11.66;60.54;101852.88;5044776;28;20052;-58
2023/05/31 02:30:12;;;;;;;3.50;1.90;;;;;;;11.65;60.90;101848.50;5056976;28;20059;-57
2023/05/31 02:32:41;;;;;;;5.38;1.90;;;;;;;11.62;60.80;101858.38;5058629;28;20136;-57
2023/05/31 02:35:10;;;;;;;5.05;1.90;;;;;;;11.59;60.80;101847.94;5053690;28;20048;-57
2023/05/31 02:37:38;;;;;;;3.42;1.85;;;;;;;11.57;60.80;101850.66;5044889;28;20059;-58
2023/05/31 02:40:09;;;;;;;4.70;1.90;;;;;;;11.56;60.94;101848.91;5059257;28;20052;-58
2023/05/31 02:42:41;;;;;;;5.32;2.47;;;;;;;11.58;61.01;101851.50;5066864;28;20401;-56
2023/05/31 02:45:09;;;;;;;4.38;2.15;;;;;;;11.57;60.92;101850.66;5058567;28;20061;-55
2023/05/31 02:47:38;;;;;;;6.13;2.00;;;;;;;11.59;61.14;101843.53;5061586;28;20048;-58
2023/05/31 02:50:09;;;;;;;7.05;1.95;;;;;;;11.60;61.36;101855.78;5040851;28;20063;-56
2023/05/31 02:52:37;;;;;;;12.48;2.63;;;;;;;11.59;60.92;101858.50;5061808;28;20044;-60
2023/05/31 02:55:05;;;;;;;5.10;2.20;;;;;;;11.57;61.14;101850.66;5042649;28;20060;-58
2023/05/31 02:57:33;;;;;;;8.68;2.58;;;;;;;11.54;61.32;101850.78;5059461;28;20485;-60
2023/05/31 03:00:10;;;;;;;7.55;1.95;;;;;;;11.52;61.17;101855.25;5057247;28;20060;-57
2023/05/31 03:02:38;;;;;;;7.28;2.30;;;;;;;11.50;61.53;101853.63;5058182;28;20136;-58
2023/05/31 03:05:08;;;;;;;6.05;2.05;;;;;;;11.49;61.38;101849.28;5041636;28;20132;-55
2023/05/31 03:07:36;;;;;;;11.40;2.50;;;;;;;11.48;61.75;101843.09;5058337;28;20049;-57
2023/05/31 03:10:04;;;;;;;10.50;2.72;;;;;;;11.47;61.76;101837.91;5057485;28;20063;-57
2023/05/31 03:12:31;;;;;;;8.02;2.70;;;;;;;11.48;61.70;101848.38;5058192;28;20135;-57
2023/05/31 03:14:59;;;;;;;4.75;2.53;;;;;;;11.47;62.15;101844.03;5047762;28;20144;-59
2023/05/31 03:17:26;;;;;;;5.88;2.60;;;;;;;11.46;62.20;101850.25;5048105;28;21131;-60
2023/05/31 03:19:53;;;;;;;4.72;2.95;;;;;;;11.43;62.31;101852.16;5057709;28;20048;-56
2023/05/31 03:22:22;;;;;;;7.47;2.67;;;;;;;11.43;62.47;101850.38;5061025;28;20131;-56
2023/05/31 03:24:50;;;;;;;10.98;3.13;;;;;;;11.44;62.42;101856.50;5059765;28;20601;-57
2023/05/31 03:27:17;;;;;;;4.03;2.42;;;;;;;11.43;62.64;101857.44;5042188;28;20056;-55
2023/05/31 03:29:44;;;;;;;7.60;3.10;;;;;;;11.41;62.39;101846.94;5060299;28;20062;-56
2023/05/31 03:32:12;;;;;;;6.55;2.60;;;;;;;11.41;62.64;101850.44;5054580;28;20066;-56
2023/05/31 03:34:39;;;;;;;10.93;2.90;;;;;;;11.40;62.35;101856.66;5051716;28;20688;-59
2023/05/31 03:37:06;;;;;;;6.28;2.47;;;;;;;11.41;62.53;101846.94;5026711;28;20140;-59
2023/05/31 03:39:34;;;;;;;7.05;2.55;;;;;;;11.42;62.39;101853.94;5050681;28;20462;-57
2023/05/31 03:42:01;;;;;;;7.03;2.25;;;;;;;11.43;62.51;101853.00;5053254;28;20896;-55
2023/05/31 03:44:29;;;;;;;6.75;2.38;;;;;;;11.46;62.34;101852.03;5055813;28;20048;-55
2023/05/31 03:46:56;;;;;;;7.40;2.30;;;;;;;11.44;62.15;101845.94;5060913;28;20386;-57
2023/05/31 03:49:24;;;;;;;6.40;2.58;;;;;;;11.45;62.31;101847.69;5062800;28;20124;-54
2023/05/31 03:51:51;;;;;;;5.00;2.33;;;;;;;11.45;62.05;101845.91;5037754;28;20143;-58
2023/05/31 03:54:19;;;;;;;7.65;2.40;;;;;;;11.47;62.02;101844.03;5044347;28;20048;-56
2023/05/31 03:56:46;;;;;;;6.03;2.53;;;;;;;11.50;61.91;101843.91;5053747;28;20086;-59
2023/05/31 03:59:13;;;;;;;8.05;2.67;;;;;;;11.52;61.92;101842.06;5055037;28;20135;-57
2023/05/31 04:01:41;;;;;;;6.95;2.75;;;;;;;11.57;61.92;101848.03;5050857;28;20080;-59
2023/05/31 04:04:08;;;;;;;6.35;2.20;;;;;;;11.59;61.48;101838.25;5044174;28;21160;-55
2023/05/31 04:06:36;;;;;;;6.78;2.92;;;;;;;11.63;61.46;101834.56;5046716;28;20139;-58
2023/05/31 04:09:04;;;;;;;5.57;2.25;;;;;;;11.68;61.54;101842.25;5037713;28;20163;-57
2023/05/31 04:11:31;;;;;;;9.32;2.58;;;;;;;11.72;61.44;101835.94;5039583;28;20052;-57
2023/05/31 04:13:58;;;;;;;7.18;3.17;;;;;;;11.74;61.62;101836.69;5050976;28;20131;-55
2023/05/31 04:16:26;;;;;;;8.32;2.78;;;;;;;11.73;61.28;101836.78;5050483;28;20174;-60
2023/05/31 04:18:53;;;;;;;6.07;2.83;;;;;;;11.71;61.22;101839.50;5052411;28;20615;-58
2023/05/31 04:21:21;;;;;;;11.45;3.20;;;;;;;11.75;61.42;101842.81;5035319;28;20049;-58
2023/05/31 04:23:48;;;;;;;7.22;3.17;;;;;;;11.78;61.12;101834.78;5051461;28;20152;-60
2023/05/31 04:26:18;;;;;;;9.35;2.20;;;;;;;11.77;61.17;101833.94;5052504;28;20106;-57
2023/05/31 04:28:51;;;;;;;6.60;2.33;;;;;;;11.81;60.96;101835.50;5047893;28;20140;-57
2023/05/31 04:31:19;;;;;;;5.00;2.38;;;;;;;11.81;61.11;101839.94;5038472;28;20084;-57
2023/05/31 04:33:46;;;;;;;10.40;3.30;;;;;;;11.86;60.74;101841.47;5057442;28;20079;-55
2023/05/31 04:36:14;;;;;;;6.45;2.10;;;;;;;11.92;60.66;101840.34;5043971;28;20076;-58
2023/05/31 04:38:41;;;;;;;4.88;2.13;;;;;;;12.00;60.53;101846.13;5062104;28;20056;-59
2023/05/31 04:41:10;;;;;;;5.43;2.67;;;;;;;12.05;60.04;101846.78;5060467;28;20072;-61
2023/05/31 04:43:39;;;;;;;6.53;2.38;;;;;;;12.12;60.41;101845.56;5063764;28;20045;-58
2023/05/31 04:46:09;;;;;;;6.03;2.30;;;;;;;12.16;60.15;101849.78;5045288;28;20125;-57
2023/05/31 04:48:36;;;;;;;8.90;3.13;;;;;;;12.22;59.82;101847.78;5059670;28;20080;-59
2023/05/31 04:51:04;;;;;;;4.43;2.20;;;;;;;12.31;59.69;101844.72;5043306;28;20528;-58
2023/05/31 04:53:32;;;;;;;5.47;2.40;;;;;;;12.37;59.58;101844.41;5061658;28;20055;-58
2023/05/31 04:56:04;;;;;;;6.30;2.80;;;;;;;12.42;59.01;101842.41;5065062;28;20435;-59
2023/05/31 04:58:32;;;;;;;6.38;2.90;;;;;;;12.49;59.11;101843.84;5059709;28;20171;-59
2023/05/31 05:01:01;;;;;;;5.93;2.63;;;;;;;12.59;59.15;101852.19;5058895;28;20140;-58
2023/05/31 05:03:29;;;;;;;10.20;3.33;;;;;;;12.69;58.47;101858.75;5055144;28;20191;-60
2023/05/31 05:05:57;;;;;;;5.53;2.40;;;;;;;12.78;58.59;101852.16;5062585;28;20064;-58
2023/05/31 05:08:24;;;;;;;6.82;2.55;;;;;;;12.83;58.18;101850.13;5063590;28;20091;-60
2023/05/31 05:10:51;;;;;;;7.35;2.42;;;;;;;12.92;57.81;101850.56;5067206;28;20048;-60
2023/05/31 05:13:19;;;;;;;8.90;2.80;;;;;;;13.04;57.62;101845.59;5036284;28;20057;-56
2023/05/31 05:15:47;;;;;;;8.18;2.53;;;;;;;13.14;57.47;101847.69;5040349;28;20060;-59
2023/05/31 05:18:14;;;;;;;6.30;2.35;;;;;;;13.23;57.26;101841.13;5060369;28;20052;-57
2023/05/31 05:20:42;;;;;;;16.25;3.13;;;;;;;13.32;56.88;101842.44;5059098;28;20504;-59
2023/05/31 05:23:09;;;;;;;7.85;2.30;;;;;;;13.42;56.62;101846.34;5061189;28;20064;-59
2023/05/31 05:25:37;;;;;;;6.78;2.78;;;;;;;13.51;56.52;101847.63;5061859;28;20136;-57
2023/05/31 05:28:04;;;;;;;13.70;2.60;;;;;;;13.57;56.32;101847.34;5057594;28;20176;-59
2023/05/31 05:30:32;;;;;;;7.50;2.15;;;;;;;13.66;56.47;101841.56;5071550;28;20816;-59
2023/05/31 05:32:59;;;;;;;7.03;2.17;;;;;;;13.76;56.05;101852.53;5060187;28;20176;-59
2023/05/31 05:35:27;;;;;;;6.80;2.45;;;;;;;13.85;55.17;101837.00;5064426;28;20057;-58
2023/05/31 05:37:55;;;;;;;12.82;2.80;;;;;;;13.98;54.92;101841.66;5043338;28;20141;-59
2023/05/31 05:40:22;;;;;;;4.60;2.67;;;;;;;14.08;54.72;101845.50;5067306;28;20071;-58
2023/05/31 05:42:49;;;;;;;21.02;3.10;;;;;;;14.19;54.76;101835.19;5046214;28;20131;-57
2023/05/31 05:45:16;;;;;;;7.47;2.92;;;;;;;14.29;54.20;101835.53;5041704;28;20105;-56
2023/05/31 05:47:45;;;;;;;9.07;2.53;;;;;;;14.40;53.90;101834.00;5059730;28;20238;-58
2023/05/31 05:50:12;;;;;;;6.82;2.65;;;;;;;14.50;53.63;101837.03;5043255;28;20076;-59
2023/05/31 05:52:39;;;;;;;5.82;3.17;;;;;;;14.58;53.07;101834.78;5060623;28;20127;-55
2023/05/31 05:55:07;;;;;;;8.15;2.75;;;;;;;14.69;52.92;101835.03;5061345;28;20131;-57
2023/05/31 05:57:35;;;;;;;6.18;2.75;;;;;;;14.78;52.59;101833.66;5064917;28;20079;-54
2023/05/31 06:00:14;;;;;;;6.80;2.50;;;;;;;14.89;52.32;101833.88;5062065;28;20125;-55
2023/05/31 06:02:41;;;;;;;8.10;2.05;;;;;;;15.02;52.08;101842.00;5044327;28;20175;-57
2023/05/31 06:05:08;;;;;;;8.15;2.83;;;;;;;15.15;51.79;101840.34;5062104;28;20131;-58
2023/05/31 06:07:35;;;;;;;7.38;2.60;;;;;;;15.29;51.25;101828.06;5064992;28;20058;-60
2023/05/31 06:10:03;;;;;;;8.73;2.47;;;;;;;15.40;50.93;101834.44;5062613;28;20108;-61
2023/05/31 06:12:30;;;;;;;5.28;2.38;;;;;;;15.54;50.76;101836.25;5063871;28;20147;-54
2023/05/31 06:14:57;;;;;;;5.95;2.20;;;;;;;15.67;50.47;101831.94;5059647;28;20127;-59
2023/05/31 06:17:25;;;;;;;6.07;2.60;;;;;;;15.75;50.36;101826.16;5063864;28;20086;-57
2023/05/31 06:19:52;;;;;;;5.38;2.38;;;;;;;15.82;50.23;101827.50;5065171;28;20143;-57
2023/05/31 06:22:19;;;;;;;13.77;2.92;;;;;;;15.96;50.08;101837.25;5063622;28;20084;-58
2023/05/31 06:24:47;;;;;;;5.60;2.25;;;;;;;16.10;49.89;101839.03;5064798;28;20059;-58
2023/05/31 06:27:14;;;;;;;4.80;2.53;;;;;;;16.22;49.53;101843.59;5065372;28;20574;-56
2023/05/31 06:29:41;;;;;;;12.38;2.88;;;;;;;16.34;49.20;101841.94;5063982;28;20064;-57
2023/05/31 06:32:09;;;;;;;5.32;2.35;;;;;;;16.42;49.02;101832.53;5062798;28;20083;-57
2023/05/31 06:34:36;;;;;;;11.80;2.70;;;;;;;16.54;48.93;101832.72;5064677;28;20129;-61
2023/05/31 06:37:04;;;;;;;5.50;3.13;;;;;;;16.63;48.67;101832.09;5061352;28;20052;-55
2023/05/31 06:39:31;;;;;;;5.60;2.17;;;;;;;16.72;48.42;101836.84;5067068;28;20152;-58
2023/05/31 06:41:59;;;;;;;7.00;2.25;;;;;;;16.80;48.32;101836.38;5064896;28;20949;-58
2023/05/31 06:44:27;;;;;;;5.07;2.25;;;;;;;16.91;48.21;101839.16;5062114;28;20539;-58
2023/05/31 06:46:55;;;;;;;5.78;2.30;;;;;;;16.98;48.01;101835.16;5065454;28;20144;-57
2023/05/31 06:49:23;;;;;;;9.95;2.70;;;;;;;17.07;47.98;101834.53;5047842;28;20167;-57
2023/05/31 06:51:50;;;;;;;10.30;2.22;;;;;;;17.18;47.81;101833.78;5046724;28;20084;-60
2023/05/31 06:54:17;;;;;;;11.40;2.60;;;;;;;17.26;47.57;101838.59;5060766;28;20140;-57
2023/05/31 06:56:45;;;;;;;14.02;3.63;;;;;;;17.34;47.57;101828.31;5065216;28;20044;-57
2023/05/31 06:59:12;;;;;;;6.57;3.10;;;;;;;17.48;47.79;101836.19;5063366;28;20060;-58
2023/05/31 07:01:40;;;;;;;7.57;2.53;;;;;;;17.60;47.30;101830.00;5065269;28;20075;-58
2023/05/31 07:04:07;;;;;;;7.25;2.08;;;;;;;17.70;46.96;101828.41;5065766;28;20139;-57
2023/05/31 07:06:36;;;;;;;11.57;2.08;;;;;;;17.82;46.77;101821.38;5062088;28;20547;-60
2023/05/31 07:09:04;;;;;;;6.30;2.40;;;;;;;17.94;46.54;101825.00;5060483;28;20151;-61
2023/05/31 07:11:31;;;;;;;5.50;2.35;;;;;;;18.03;46.23;101820.84;5058039;28;20091;-60
2023/05/31 07:14:02;;;;;;;11.13;2.88;;;;;;;18.01;45.30;101812.94;5045240;28;20052;-57
2023/05/31 07:16:29;;;;;;;12.95;3.40;;;;;;;18.05;45.31;101816.25;5063797;28;20048;-58
2023/05/31 07:18:56;;;;;;;6.30;2.25;;;;;;;18.03;45.07;101818.19;5064030;28;20080;-58
2023/05/31 07:21:24;;;;;;;6.28;2.40;;;;;;;18.07;45.30;101814.34;5063743;28;20081;-56
2023/05/31 07:23:51;;;;;;;4.93;2.63;;;;;;;18.17;45.22;101800.22;5062458;28;20048;-60
2023/05/31 07:26:19;;;;;;;5.85;2.22;;;;;;;18.29;44.81;101800.31;5066035;28;20083;-57
2023/05/31 07:28:46;;;;;;;4.15;2.08;;;;;;;18.43;44.49;101803.66;5063779;28;20816;-57
2023/05/31 07:31:15;;;;;;;9.25;2.67;;;;;;;18.38;43.05;101807.66;5063733;28;20072;-60
2023/05/31 07:33:43;;;;;;;6.03;2.55;;;;;;;18.46;43.10;101806.13;5063353;28;20072;-56
2023/05/31 07:36:11;;;;;;;5.35;2.08;;;;;;;18.51;43.15;101804.91;5044840;28;20132;-59
2023/05/31 07:38:38;;;;;;;11.88;3.75;;;;;;;18.71;42.94;101804.31;5065295;28;20064;-58
2023/05/31 07:41:05;;;;;;;6.35;2.20;;;;;;;18.68;42.09;101808.03;5065223;28;20136;-54
2023/05/31 07:43:34;;;;;;;11.45;2.53;;;;;;;18.82;42.01;101800.84;5061802;28;20048;-57
2023/05/31 07:46:01;;;;;;;8.40;2.88;;;;;;;19.01;41.69;101803.00;5062088;28;20080;-55
2023/05/31 07:48:28;;;;;;;8.63;2.78;;;;;;;19.16;41.60;101797.31;5061944;28;20132;-60
2023/05/31 07:50:56;;;;;;;9.32;2.75;;;;;;;19.28;41.43;101786.69;5047943;28;20619;-53
2023/05/31 07:53:23;;;;;;;11.00;2.40;;;;;;;19.41;40.94;101790.13;5064556;28;20114;-60
2023/05/31 07:55:50;;;;;;;8.15;2.03;;;;;;;19.39;40.10;101789.38;5060491;28;20048;-59
2023/05/31 07:58:17;;;;;;;6.07;2.28;;;;;;;19.42;39.54;101789.97;5045922;28;20124;-58
2023/05/31 08:00:45;;;;;;;5.65;2.97;;;;;;;19.55;39.33;101786.38;5046950;28;20068;-57
2023/05/31 08:03:13;;;;;;;9.00;2.58;;;;;;;19.66;39.09;101786.38;5067296;28;20057;-57
2023/05/31 08:05:41;;;;;;;5.75;2.78;;;;;;;19.73;38.38;101791.13;5064045;28;20208;-59
2023/05/31 08:08:08;;;;;;;6.63;2.25;;;;;;;19.80;38.23;101798.66;5062581;28;20227;-59
2023/05/31 08:10:35;;;;;;;14.70;2.80;;;;;;;19.89;37.38;101792.56;5067673;28;20052;-57
2023/05/31 08:13:02;;;;;;;7.25;1.60;;;;;;;20.02;37.30;101793.28;5063718;28;22122;-61
2023/05/31 08:15:30;;;;;;;9.10;2.45;;;;;;;20.18;37.05;101788.44;5046850;28;20045;-57
2023/05/31 08:17:58;;;;;;;6.82;1.83;;;;;;;20.27;35.53;101788.66;5061187;28;20135;-58
2023/05/31 08:20:26;;;;;;;8.00;2.55;;;;;;;20.41;35.26;101785.69;5064086;28;20099;-60
2023/05/31 08:22:54;;;;;;;6.43;1.85;;;;;;;20.58;35.26;101795.03;5044203;28;20052;-62
2023/05/31 08:25:22;;;;;;;8.50;3.05;;;;;;;20.36;35.19;101785.22;5059934;28;20049;-57
2023/05/31 08:27:50;;;;;;;12.75;2.25;;;;;;;20.22;34.29;101781.84;5063969;28;20058;-60
2023/05/31 08:30:17;;;;;;;6.70;1.60;;;;;;;20.30;32.66;101783.03;5065895;28;20177;-57
2023/05/31 08:32:45;;;;;;;7.75;1.70;;;;;;;20.43;32.36;101789.09;5062417;28;20151;-58
2023/05/31 08:35:12;;;;;;;5.00;1.77;;;;;;;20.55;32.29;101795.28;5065557;28;20056;-59
2023/05/31 08:37:40;;;;;;;7.97;2.03;;;;;;;20.63;31.99;101793.69;5067652;28;20139;-59
2023/05/31 08:40:08;;;;;;;5.30;1.55;;;;;;;20.48;32.32;101789.59;5068024;28;20163;-61
2023/05/31 08:42:52;;;;;;;8.18;1.85;;;;;;;20.58;32.88;101787.88;5066122;28;20056;-58
2023/05/31 08:45:19;;;;;;;4.07;1.45;;;;;;;20.59;33.07;101799.41;5047867;28;20140;-58
2023/05/31 08:47:59;;;;;;;6.57;1.80;;;;;;;20.65;32.40;101791.72;5052292;28;20139;-56
2023/05/31 08:50:26;;;;;;;10.82;2.10;;;;;;;20.74;32.68;101776.72;5067317;28;20179;-59
2023/05/31 08:52:55;;;;;;;6.35;1.80;;;;;;;20.98;32.46;101782.72;5046981;28;20143;-59
2023/05/31 08:55:23;;;;;;;4.47;1.85;;;;;;;21.07;32.19;101783.72;5045853;28;20040;-57
2023/05/31 08:57:51;;;;;;;9.35;2.25;;;;;;;21.16;32.71;101785.66;5068363;28;20624;-60
2023/05/31 09:00:19;;;;;;;6.85;1.92;;;;;;;21.26;32.24;101776.81;5048210;28;20487;-56
2023/05/31 09:02:47;;;;;;;8.18;2.10;;;;;;;21.31;31.69;101783.50;5045491;28;20182;-56
2023/05/31 09:05:14;;;;;;;3.85;1.60;;;;;;;21.28;31.65;101777.53;5045667;28;20138;-57
2023/05/31 09:07:42;;;;;;;6.68;2.22;;;;;;;21.38;30.76;101787.34;5064437;28;20064;-60
2023/05/31 09:10:10;;;;;;;7.03;2.08;;;;;;;21.56;30.27;101766.13;5084284;22;20564;-56
2023/05/31 09:12:38;;;;;;;6.13;1.67;;;;;;;21.61;30.12;101766.59;5085567;28;20357;-55
2023/05/31 09:15:06;;;;;;;9.48;1.90;;;;;;;21.64;29.27;101763.66;5081209;28;20154;-59
2023/05/31 09:17:33;;;;;;;3.13;1.60;;;;;;;21.78;29.47;101758.91;5086663;28;20109;-57
2023/05/31 09:20:01;;;;;;;13.52;1.80;;;;;;;21.97;28.96;101761.63;5084264;28;20468;-58
2023/05/31 09:22:28;;;;;;;5.32;2.10;;;;;;;22.11;28.74;101755.91;5081219;28;20088;-57
2023/05/31 09:24:56;;;;;;;6.15;1.88;;;;;;;22.33;29.98;101751.28;5084533;28;20804;-57
2023/05/31 09:27:26;;;;;;;8.38;1.92;;;;;;;22.53;29.80;101754.84;5085021;28;20559;-55
2023/05/31 09:29:54;;;;;;;5.95;1.90;;;;;;;22.55;28.71;101753.72;5085109;28;20067;-56
2023/05/31 09:32:22;;;;;;;6.13;2.20;;;;;;;22.68;28.72;101748.91;5083659;28;20059;-58
2023/05/31 09:34:49;;;;;;;2.60;1.60;;;;;;;22.65;28.69;101751.91;5084713;28;20048;-57
2023/05/31 09:37:24;;;;;;;3.97;1.55;;;;;;;22.69;28.68;101741.69;5083983;28;20087;-58
2023/05/31 09:39:55;;;;;;;4.32;1.67;;;;;;;22.70;28.34;101736.22;5082740;28;20689;-56
2023/05/31 09:42:29;;;;;;;6.03;2.03;;;;;;;22.83;28.77;101732.38;5085441;28;20128;-58
2023/05/31 09:44:59;;;;;;;3.97;1.70;;;;;;;23.04;28.71;101733.06;5083570;28;20230;-53
2023/05/31 09:47:26;;;;;;;6.07;2.05;;;;;;;23.30;28.90;101733.28;5084427;28;20086;-57
2023/05/31 09:49:54;;;;;;;6.88;1.55;;;;;;;23.39;28.05;101732.41;5085053;28;20131;-54
2023/05/31 09:52:30;;;;;;;8.40;1.65;;;;;;;23.37;27.64;101731.72;5086673;28;20515;-52
2023/05/31 09:55:04;;;;;;;3.58;1.63;;;;;;;23.50;28.15;101729.56;5082978;28;20101;-53
2023/05/31 09:57:38;;;;;;;3.90;2.25;;;;;;;23.73;27.76;101727.34;5086772;28;20464;-54
2023/05/31 10:00:15;;;;;;;3.90;1.75;;;;;;;23.91;27.98;101734.59;5081240;28;20121;-55
2023/05/31 10:02:45;;;;;;;6.15;1.65;;;;;;;23.47;26.22;101729.00;5084805;28;20139;-54
2023/05/31 10:05:14;;;;;;;3.85;1.75;;;;;;;23.41;26.67;101726.88;5085398;28;20139;-56
2023/05/31 10:07:42;;;;;;;5.10;1.48;;;;;;;23.34;27.25;101721.25;5083992;28;20575;-55
2023/05/31 10:10:11;;;;;;;4.28;1.90;;;;;;;23.43;28.41;101717.69;5083673;28;20080;-57
2023/05/31 10:12:43;;;;;;;3.80;1.58;;;;;;;23.35;26.44;101716.72;5086657;28;20135;-55
2023/05/31 10:15:13;;;;;;;7.90;1.60;;;;;;;23.28;26.82;101718.28;5074945;28;20132;-55
2023/05/31 10:17:46;;;;;;;5.00;1.30;;;;;;;23.39;26.97;101707.38;5078787;28;20044;-58
2023/05/31 10:20:16;;;;;;;3.50;1.40;;;;;;;23.55;27.23;101712.97;5084928;28;20075;-57
2023/05/31 10:22:45;;;;;;;6.28;1.73;;;;;;;23.65;27.51;101712.97;5087421;28;20144;-53
2023/05/31 10:25:27;;;;;;;6.20;1.80;;;;;;;23.69;27.01;101701.75;5087378;28;20084;-58
2023/05/31 10:27:55;;;;;;;4.38;1.50;;;;;;;23.52;26.25;101707.06;5081632;28;20127;-56
2023/05/31 10:30:26;;;;;;;9.52;3.50;;;;;;;23.42;26.86;101704.41;5080551;28;20271;-57
2023/05/31 10:33:07;;;;;;;9.93;1.60;;;;;;;23.41;26.87;101708.06;5083485;28;20583;-54
2023/05/31 10:35:35;;;;;;;4.63;2.08;;;;;;;23.57;27.36;101702.06;5082858;28;20048;-58
2023/05/31 10:38:02;;;;;;;5.55;1.70;;;;;;;23.82;27.33;101701.41;5084032;28;20138;-56
2023/05/31 10:40:44;;;;;;;13.38;1.70;;;;;;;24.17;27.02;101697.06;5087168;28;20093;-57
2023/05/31 10:43:19;;;;;;;4.75;1.40;;;;;;;24.46;26.13;101696.88;5084467;28;20186;-51
2023/05/31 10:45:56;;;;;;;;;;;;;;;24.43;25.95;101689.09;5081532;28;20075;-52
2023/05/31 10:48:41;;;;;;;3.97;1.50;;;;;;;24.57;26.56;101691.22;5084072;28;20002;-54
2023/05/31 10:51:10;;;;;;;;;;;;;;;24.85;26.61;101693.78;5082296;28;20056;-55
2023/05/31 10:53:38;;;;;;;7.78;1.65;;;;;;;25.10;26.26;101692.13;5079833;28;20174;-54
2023/05/31 10:56:09;;;;;;;5.60;1.52;;;;;;;25.32;26.71;101686.19;5084828;28;20123;-55
2023/05/31 10:58:43;;;;;;;1.95;1.20;;;;;;;25.28;24.87;101678.59;5087979;28;20281;-53
2023/05/31 11:01:13;;;;;;;2.58;1.30;;;;;;;25.41;25.16;101685.22;5085021;28;20138;-52
2023/05/31 11:04:00;;;;;;;6.05;1.35;;;;;;;25.67;25.52;101677.09;5085221;28;20044;-58
2023/05/31 11:06:30;;;;;;;4.88;1.40;;;;;;;25.69;24.63;101674.22;5083397;28;20692;-57
2023/05/31 11:08:58;;;;;;;3.00;1.50;;;;;;;25.79;24.98;101674.09;5084637;28;20052;-56
2023/05/31 11:11:44;;;;;;;3.13;1.20;;;;;;;25.78;24.53;101669.72;5083818;28;20098;-55
2023/05/31 11:14:25;;;;;;;2.47;1.20;;;;;;;25.84;23.88;101671.75;5084735;28;20930;-55
2023/05/31 11:16:53;;;;;;;2.85;1.48;;;;;;;25.95;23.31;101671.44;5078890;28;20148;-57
2023/05/31 11:19:27;;;;;;;4.53;1.42;;;;;;;25.98;23.40;101677.38;5080683;28;20392;-54
2023/05/31 11:21:55;;;;;;;1.73;1.02;;;;;;;25.70;23.31;101663.25;5098309;27;20044;-54
2023/05/31 11:24:30;;;;;;;2.17;1.13;;;;;;;25.84;23.00;101675.28;5085716;28;20052;-55
2023/05/31 11:27:01;;;;;;;4.63;1.27;;;;;;;25.60;22.84;101662.53;5084704;28;20417;-56
2023/05/31 11:29:44;;;;;;;3.75;0.88;;;;;;;25.48;23.62;101656.59;5082053;28;20130;-54
2023/05/31 11:32:11;;;;;;;2.97;1.15;;;;;;;25.66;23.43;101644.88;5082470;28;20150;-54
2023/05/31 11:34:50;;;;;;;3.55;1.05;;;;;;;25.72;23.31;101652.31;5083696;28;20070;-57
2023/05/31 11:37:18;;;;;;;3.20;1.20;;;;;;;25.88;22.69;101643.44;5083070;28;20186;-54